Time;durP1;ratioP1;P1;durP2;ratioP2;P2;SDS_P1;SDS_P2;PMS_P1;PMS_P2;Temp;Humidity;BMP_temperature;BMP_pressure;BME280_temperature;BME280_humidity;BME280_pressure;Samples;Min_cycle;Max_cycle;Signal;HPM_P1;HPM_P2
2023/10/05 00:01:11;;;;;;;10.88;2.35;;;13.40;99.90;;;;;;4847380;29;20060;-79
2023/10/05 00:03:39;;;;;;;14.68;2.08;;;13.40;99.90;;;;;;4833844;29;20034;-80
2023/10/05 00:06:17;;;;;;;9.77;1.83;;;13.40;99.90;;;;;;4793177;29;20586;-79
2023/10/05 00:08:50;;;;;;;9.02;1.90;;;13.40;99.90;;;;;;4831543;29;20046;-79
2023/10/05 00:11:24;;;;;;;5.97;1.63;;;13.40;99.90;;;;;;4825689;29;20059;-81
2023/10/05 00:13:57;;;;;;;9.45;2.33;;;13.40;99.90;;;;;;4817038;29;20053;-80
2023/10/05 00:16:23;;;;;;;5.03;1.70;;;13.40;99.90;;;;;;4793713;29;20070;-79
2023/10/05 00:18:50;;;;;;;4.93;1.73;;;13.50;99.90;;;;;;4804750;29;20046;-78
2023/10/05 00:21:19;;;;;;;12.00;2.97;;;13.40;99.90;;;;;;4832678;29;20073;-80
2023/10/05 00:23:57;;;;;;;4.65;1.95;;;13.50;99.90;;;;;;4825362;29;20133;-80
2023/10/05 00:26:28;;;;;;;7.25;1.70;;;13.40;99.90;;;;;;4811167;29;20054;-79
2023/10/05 00:29:12;;;;;;;8.95;1.77;;;13.40;99.90;;;;;;4817356;29;20046;-80
2023/10/05 00:31:41;;;;;;;6.85;1.77;;;13.40;99.90;;;;;;4819266;29;20054;-80
2023/10/05 00:34:10;;;;;;;9.45;2.30;;;13.40;99.90;;;;;;4811181;29;20039;-78
2023/10/05 00:36:39;;;;;;;10.68;2.05;;;13.40;99.90;;;;;;4810974;29;20050;-79
2023/10/05 00:39:08;;;;;;;7.80;2.22;;;13.40;99.90;;;;;;4820819;29;20119;-78
2023/10/05 00:41:34;;;;;;;7.22;1.70;;;13.30;99.90;;;;;;4820605;29;20103;-79
2023/10/05 00:44:01;;;;;;;6.93;2.20;;;13.30;99.90;;;;;;4813093;29;20054;-79
2023/10/05 00:46:31;;;;;;;12.27;2.13;;;13.30;99.90;;;;;;4828264;29;20178;-80
2023/10/05 00:49:05;;;;;;;10.63;2.92;;;13.30;99.90;;;;;;4805635;29;20163;-80
2023/10/05 00:51:33;;;;;;;7.28;2.00;;;13.30;99.90;;;;;;4820320;29;20050;-79
2023/10/05 00:54:10;;;;;;;7.72;2.10;;;13.20;99.90;;;;;;4828169;29;20074;-81
2023/10/05 00:56:40;;;;;;;8.80;2.28;;;13.20;99.90;;;;;;4812437;29;20042;-80
2023/10/05 00:59:06;;;;;;;9.70;1.90;;;13.20;99.90;;;;;;4820033;29;20526;-80
2023/10/05 01:01:49;;;;;;;10.20;1.92;;;13.20;99.90;;;;;;4830425;29;20051;-80
2023/10/05 01:04:20;;;;;;;13.05;2.83;;;14.10;99.90;;;;;;4827751;29;20057;-80
2023/10/05 01:07:42;;;;;;;5.32;1.60;;;13.20;99.90;;;;;;4842947;29;20138;-79
2023/10/05 01:09:55;;;;;;;10.95;2.40;;;13.20;99.90;;;;;;4820436;29;20136;-80
2023/10/05 01:12:41;;;;;;;7.72;2.15;;;13.20;99.90;;;;;;4791278;29;20510;-81
2023/10/05 01:15:09;;;;;;;12.48;2.40;;;13.20;99.90;;;;;;4833029;29;20137;-80
2023/10/05 01:17:36;;;;;;;6.80;2.42;;;13.20;99.90;;;;;;4803440;29;20050;-80
2023/10/05 01:20:12;;;;;;;10.35;2.35;;;13.20;99.90;;;;;;4818732;29;20065;-80
2023/10/05 01:22:44;;;;;;;8.80;2.42;;;13.20;99.90;;;;;;4804442;29;20061;-79
2023/10/05 01:25:14;;;;;;;9.27;2.00;;;13.20;99.90;;;;;;4833372;29;20047;-79
2023/10/05 01:27:45;;;;;;;6.97;3.08;;;13.20;99.90;;;;;;4803319;29;20129;-81
2023/10/05 01:30:15;;;;;;;7.18;2.40;;;13.20;99.90;;;;;;4849277;29;20056;-81
2023/10/05 01:32:41;;;;;;;7.95;1.52;;;13.20;99.90;;;;;;4834368;29;20246;-80
2023/10/05 01:35:09;;;;;;;11.88;2.33;;;13.50;99.90;;;;;;4818737;29;20142;-81
2023/10/05 01:37:36;;;;;;;7.10;2.03;;;13.20;99.90;;;;;;4819009;29;20050;-80
2023/10/05 01:40:12;;;;;;;13.65;2.20;;;14.10;99.90;;;;;;4803363;29;20050;-80
2023/10/05 01:42:43;;;;;;;11.70;1.92;;;13.20;99.90;;;;;;4818814;29;20571;-81
2023/10/05 01:45:10;;;;;;;11.45;2.60;;;12.70;99.90;;;;;;4828427;29;20099;-79
2023/10/05 01:47:35;;;;;;;9.38;2.65;;;13.20;99.90;;;;;;4830269;29;20038;-79
2023/10/05 01:50:01;;;;;;;7.97;2.20;;;13.20;99.90;;;;;;4800395;29;20057;-80
2023/10/05 01:52:27;;;;;;;6.65;2.10;;;13.20;99.90;;;;;;4803286;29;20117;-80
2023/10/05 01:54:53;;;;;;;9.05;2.10;;;13.20;99.90;;;;;;4817594;29;20416;-80
2023/10/05 01:57:20;;;;;;;12.05;2.35;;;13.20;99.90;;;;;;4802797;29;20161;-80
2023/10/05 01:59:46;;;;;;;11.95;2.90;;;13.20;99.90;;;;;;4825431;29;20212;-80
2023/10/05 02:02:15;;;;;;;9.18;2.45;;;13.20;99.90;;;;;;4832873;29;20086;-80
2023/10/05 02:04:45;;;;;;;12.73;3.00;;;13.20;99.90;;;;;;4818272;29;20050;-79
2023/10/05 02:07:15;;;;;;;8.10;2.47;;;13.20;99.90;;;;;;4831894;29;20058;-80
2023/10/05 02:09:41;;;;;;;12.32;2.90;;;13.20;99.90;;;;;;4818838;29;20091;-79
2023/10/05 02:12:07;;;;;;;10.95;2.28;;;13.20;99.90;;;;;;4826658;29;20081;-80
2023/10/05 02:14:36;;;;;;;8.45;2.25;;;13.20;99.90;;;;;;4832556;29;20149;-80
2023/10/05 02:17:03;;;;;;;12.25;2.42;;;13.20;99.90;;;;;;4843920;29;20061;-80
2023/10/05 02:19:30;;;;;;;9.02;2.72;;;13.20;99.90;;;;;;4803551;29;20072;-79
2023/10/05 02:21:58;;;;;;;7.45;2.33;;;13.20;99.90;;;;;;4820487;29;20115;-79
2023/10/05 02:24:25;;;;;;;15.32;2.40;;;13.40;99.90;;;;;;4797365;29;20046;-80
2023/10/05 02:29:34;;;;;;;9.20;2.30;;;13.20;99.90;;;;;;4818939;29;20089;-80
2023/10/05 02:35:18;;;;;;;10.52;2.55;;;13.20;99.90;;;;;;4839424;29;20058;-80
2023/10/05 02:37:19;;;;;;;13.95;2.90;;;13.30;99.90;;;;;;4840973;29;20074;-79
2023/10/05 02:39:45;;;;;;;15.15;2.47;;;13.20;99.90;;;;;;4813913;29;20049;-80
2023/10/05 02:42:21;;;;;;;12.05;2.75;;;13.20;99.90;;;;;;4842459;29;20046;-79
2023/10/05 02:44:49;;;;;;;11.23;1.98;;;13.20;99.90;;;;;;4826869;29;20062;-79
2023/10/05 02:47:22;;;;;;;12.60;2.15;;;13.30;99.90;;;;;;4810819;29;20372;-80
2023/10/05 02:49:48;;;;;;;16.70;3.03;;;13.30;99.90;;;;;;4810915;29;20125;-81
2023/10/05 02:52:15;;;;;;;16.33;2.15;;;13.40;99.90;;;;;;4795984;29;20129;-80
2023/10/05 02:54:51;;;;;;;11.57;2.50;;;13.40;99.90;;;;;;4811322;29;20054;-80
2023/10/05 02:57:17;;;;;;;9.73;2.20;;;13.40;99.90;;;;;;4794927;29;20054;-80
2023/10/05 02:59:44;;;;;;;12.93;2.13;;;13.50;99.90;;;;;;4818187;29;20491;-80
2023/10/05 03:02:16;;;;;;;13.88;2.28;;;13.50;99.90;;;;;;4826712;29;20127;-80
2023/10/05 03:05:05;;;;;;;9.65;2.55;;;13.50;99.90;;;;;;4825977;29;20438;-80
2023/10/05 03:07:30;;;;;;;11.50;1.92;;;13.50;99.90;;;;;;4797139;29;20355;-78
2023/10/05 03:09:59;;;;;;;14.32;2.55;;;13.50;99.90;;;;;;4811004;29;20522;-79
2023/10/05 03:12:25;;;;;;;10.70;2.80;;;13.60;99.90;;;;;;4811432;29;20107;-79
2023/10/05 03:14:51;;;;;;;9.60;2.10;;;13.60;99.90;;;;;;4825990;29;20099;-79
2023/10/05 03:17:21;;;;;;;15.10;2.55;;;13.70;99.90;;;;;;4844184;29;20129;-79
2023/10/05 03:19:50;;;;;;;11.60;2.22;;;13.70;99.90;;;;;;4848682;29;20202;-79
2023/10/05 03:22:16;;;;;;;19.17;2.50;;;13.80;99.90;;;;;;4792661;29;20200;-79
2023/10/05 03:24:44;;;;;;;12.95;2.58;;;14.00;99.90;;;;;;4831370;29;20141;-79
2023/10/05 03:27:14;;;;;;;13.90;2.55;;;13.80;99.90;;;;;;4818034;29;20489;-81
2023/10/05 03:29:45;;;;;;;15.70;3.22;;;13.80;99.90;;;;;;4802276;29;20082;-80
2023/10/05 03:34:37;;;;;;;14.93;2.60;;;13.80;99.90;;;;;;4838681;29;20103;-80
2023/10/05 03:37:39;;;;;;;14.95;2.95;;;15.20;99.90;;;;;;4838853;29;20070;-79
2023/10/05 03:40:06;;;;;;;17.52;2.45;;;14.20;99.90;;;;;;4810938;29;20531;-79
2023/10/05 03:42:32;;;;;;;18.30;3.08;;;13.80;99.90;;;;;;4828522;29;20075;-80
2023/10/05 03:45:03;;;;;;;20.48;3.13;;;13.80;99.90;;;;;;4823589;29;20477;-79
2023/10/05 03:47:30;;;;;;;9.77;2.80;;;13.90;99.90;;;;;;4847199;29;20099;-80
2023/10/05 03:49:57;;;;;;;11.07;3.05;;;13.90;99.90;;;;;;4821078;29;20047;-81
2023/10/05 03:52:29;;;;;;;15.38;2.78;;;13.90;99.90;;;;;;4830143;29;20054;-80
2023/10/05 03:55:09;;;;;;;15.88;3.65;;;13.90;99.90;;;;;;4807230;29;20050;-81
2023/10/05 03:57:36;;;;;;;14.85;2.83;;;14.60;99.90;;;;;;4814831;29;20054;-80
2023/10/05 04:00:16;;;;;;;14.45;2.70;;;14.00;99.90;;;;;;4810421;29;20078;-81
2023/10/05 04:02:43;;;;;;;15.27;2.83;;;14.00;99.90;;;;;;4841267;29;20050;-81
2023/10/05 04:05:10;;;;;;;11.45;2.30;;;14.00;99.90;;;;;;4847820;29;20042;-80
2023/10/05 04:07:37;;;;;;;12.43;2.60;;;14.00;99.90;;;;;;4812567;29;20445;-80
2023/10/05 04:10:07;;;;;;;18.50;2.97;;;14.30;99.90;;;;;;4824328;29;20053;-80
2023/10/05 04:12:34;;;;;;;17.77;3.30;;;14.00;99.90;;;;;;4799158;29;20046;-80
2023/10/05 04:15:00;;;;;;;16.27;2.42;;;14.00;99.90;;;;;;4803182;29;20067;-80
2023/10/05 04:17:27;;;;;;;15.50;2.83;;;14.00;99.90;;;;;;4799328;29;20050;-79
2023/10/05 04:19:53;;;;;;;14.98;2.58;;;14.00;99.90;;;;;;4828931;29;20053;-80
2023/10/05 04:22:19;;;;;;;12.43;2.40;;;14.00;99.90;;;;;;4841143;29;20103;-79
2023/10/05 04:24:45;;;;;;;12.50;2.75;;;14.00;99.90;;;;;;4849690;29;20501;-80
2023/10/05 04:27:10;;;;;;;21.33;3.65;;;14.00;99.90;;;;;;4811610;29;20082;-81
2023/10/05 04:29:37;;;;;;;10.05;2.33;;;13.90;99.90;;;;;;4795132;29;20515;-81
2023/10/05 04:32:04;;;;;;;11.40;2.60;;;13.90;99.90;;;;;;4840844;29;20557;-80
2023/10/05 04:34:31;;;;;;;14.15;2.72;;;13.90;99.90;;;;;;4829409;29;20492;-80
2023/10/05 04:36:58;;;;;;;11.35;2.38;;;13.90;99.90;;;;;;4828767;29;20058;-80
2023/10/05 04:39:32;;;;;;;13.77;3.20;;;13.90;99.90;;;;;;4844455;29;20042;-80
2023/10/05 04:42:06;;;;;;;18.98;2.92;;;13.90;99.90;;;;;;4812465;29;20058;-80
2023/10/05 04:44:34;;;;;;;14.20;2.47;;;15.20;99.90;;;;;;4828560;29;20046;-80
2023/10/05 04:46:59;;;;;;;14.80;2.60;;;13.90;99.90;;;;;;4798156;29;20050;-79
2023/10/05 04:49:27;;;;;;;17.48;2.63;;;13.90;99.90;;;;;;4840757;29;20557;-80
2023/10/05 04:51:53;;;;;;;10.20;2.60;;;14.00;99.90;;;;;;4810091;29;20096;-80
2023/10/05 04:54:19;;;;;;;9.90;2.33;;;13.90;99.90;;;;;;4833529;29;20054;-81
2023/10/05 04:56:54;;;;;;;12.77;2.58;;;14.00;99.90;;;;;;4831692;29;20425;-80
2023/10/05 04:59:37;;;;;;;9.27;2.75;;;14.20;99.90;;;;;;4841570;29;20055;-81
2023/10/05 05:02:21;;;;;;;11.80;2.95;;;13.90;99.90;;;;;;4826112;29;20047;-80
2023/10/05 05:07:17;;;;;;;14.10;3.20;;;14.00;99.90;;;;;;4813367;29;20061;-79
2023/10/05 05:09:43;;;;;;;10.82;3.10;;;13.90;99.90;;;;;;4798388;29;20073;-80
2023/10/05 05:12:16;;;;;;;15.65;2.78;;;14.00;99.90;;;;;;4841078;29;20089;-81
2023/10/05 05:14:46;;;;;;;16.17;2.67;;;13.90;99.90;;;;;;4830026;29;20417;-80
2023/10/05 05:17:14;;;;;;;12.27;2.58;;;13.90;99.90;;;;;;4817879;29;20523;-81
2023/10/05 05:19:39;;;;;;;16.27;2.83;;;13.90;99.90;;;;;;4825122;29;20051;-80
2023/10/05 05:22:06;;;;;;;13.45;2.65;;;13.90;99.90;;;;;;4841823;29;20058;-81
2023/10/05 05:24:32;;;;;;;18.60;3.40;;;13.80;99.90;;;;;;4845536;29;20507;-79
2023/10/05 05:27:17;;;;;;;13.27;2.88;;;13.80;99.90;;;;;;4828151;29;20051;-81
2023/10/05 05:29:44;;;;;;;12.52;3.13;;;14.40;99.90;;;;;;4814747;29;20100;-81
2023/10/05 05:32:10;;;;;;;19.70;3.72;;;13.80;99.90;;;;;;4826048;29;20089;-80
2023/10/05 05:34:42;;;;;;;14.55;3.20;;;13.80;99.90;;;;;;4801617;29;20158;-80
2023/10/05 05:37:19;;;;;;;14.13;2.88;;;13.70;99.90;;;;;;4835539;29;20051;-80
2023/10/05 05:39:45;;;;;;;14.07;2.78;;;13.70;99.90;;;;;;4835233;29;20070;-81
2023/10/05 05:42:14;;;;;;;14.70;3.22;;;13.70;99.90;;;;;;4819156;29;20175;-82
2023/10/05 05:44:43;;;;;;;11.50;3.00;;;13.70;99.90;;;;;;4469106;29;10000111;-81
2023/10/05 05:47:10;;;;;;;14.00;2.85;;;13.70;99.90;;;;;;4803114;29;20054;-81
2023/10/05 05:49:38;;;;;;;19.77;3.88;;;14.30;99.90;;;;;;4825927;29;20042;-81
2023/10/05 05:52:11;;;;;;;12.80;2.83;;;14.10;99.90;;;;;;4802341;29;20506;-82
2023/10/05 05:54:42;;;;;;;19.42;3.10;;;13.70;99.90;;;;;;4817796;29;20109;-81
2023/10/05 05:57:11;;;;;;;12.10;2.97;;;13.70;99.90;;;;;;4832758;29;20535;-82
2023/10/05 05:59:38;;;;;;;15.77;3.42;;;13.70;99.90;;;;;;4832626;29;20091;-81
2023/10/05 06:02:08;;;;;;;13.02;2.72;;;13.70;99.90;;;;;;4820173;29;20038;-81
2023/10/05 06:04:34;;;;;;;16.58;3.08;;;14.00;99.90;;;;;;4815032;29;20046;-81
2023/10/05 06:07:01;;;;;;;11.85;3.25;;;14.10;99.90;;;;;;4815741;29;20038;-82
2023/10/05 06:09:33;;;;;;;16.05;3.13;;;13.80;99.90;;;;;;4802384;29;20043;-80
2023/10/05 06:11:59;;;;;;;17.50;4.25;;;14.30;99.90;;;;;;4816594;29;20554;-81
2023/10/05 06:14:27;;;;;;;14.75;2.88;;;13.80;99.90;;;;;;4817247;29;20050;-82
2023/10/05 06:16:53;;;;;;;14.80;3.10;;;13.90;99.90;;;;;;4832111;29;20688;-81
2023/10/05 06:19:20;;;;;;;17.52;2.97;;;13.90;99.90;;;;;;4833615;29;20043;-77
2023/10/05 06:21:47;;;;;;;20.05;4.05;;;13.90;99.90;;;;;;4817396;29;20054;-79
2023/10/05 06:24:12;;;;;;;21.67;3.78;;;13.90;99.90;;;;;;4797227;29;20046;-81
2023/10/05 06:26:38;;;;;;;18.33;3.55;;;14.00;99.90;;;;;;4833635;29;20522;-80
2023/10/05 06:29:08;;;;;;;11.65;2.60;;;14.00;99.90;;;;;;4833550;29;20043;-80
2023/10/05 06:31:37;;;;;;;15.68;3.10;;;14.00;99.90;;;;;;4830009;29;20096;-80
2023/10/05 06:34:09;;;;;;;16.25;3.65;;;14.00;99.90;;;;;;4830953;29;20511;-80
2023/10/05 06:36:37;;;;;;;19.38;3.30;;;14.10;99.90;;;;;;4828059;29;20101;-80
2023/10/05 06:39:05;;;;;;;15.90;3.28;;;14.10;99.90;;;;;;4796734;29;20288;-80
2023/10/05 06:41:32;;;;;;;12.55;2.65;;;14.10;99.90;;;;;;4838608;29;20137;-79
2023/10/05 06:43:57;;;;;;;15.05;3.17;;;14.10;99.90;;;;;;4838250;29;20043;-80
2023/10/05 06:46:27;;;;;;;12.57;2.88;;;14.10;99.90;;;;;;4831559;29;20046;-83
2023/10/05 06:48:53;;;;;;;20.95;3.90;;;14.20;99.90;;;;;;4838051;29;20061;-79
2023/10/05 06:51:29;;;;;;;17.35;2.88;;;14.20;99.90;;;;;;4827135;29;20126;-80
2023/10/05 06:53:57;;;;;;;15.80;2.95;;;14.20;99.90;;;;;;4802770;29;20069;-81
2023/10/05 06:56:26;;;;;;;13.02;2.88;;;14.30;99.90;;;;;;4832979;29;20530;-80
2023/10/05 06:58:53;;;;;;;16.70;3.45;;;14.30;99.90;;;;;;4797531;29;20133;-79
2023/10/05 07:01:23;;;;;;;14.20;3.10;;;14.30;99.90;;;;;;4810480;29;20069;-82
2023/10/05 07:03:56;;;;;;;18.67;3.08;;;15.70;99.90;;;;;;4795584;29;20198;-80
2023/10/05 07:06:29;;;;;;;16.55;3.65;;;14.40;99.90;;;;;;4804010;29;20129;-80
2023/10/05 07:08:55;;;;;;;15.00;2.97;;;14.40;99.90;;;;;;4796802;29;20411;-80
2023/10/05 07:11:22;;;;;;;22.08;3.88;;;14.30;99.90;;;;;;4795554;29;20051;-82
2023/10/05 07:13:48;;;;;;;17.67;3.42;;;14.40;99.90;;;;;;4834093;29;20046;-80
2023/10/05 07:16:15;;;;;;;14.60;2.97;;;14.50;99.90;;;;;;4826161;29;20050;-82
2023/10/05 07:18:41;;;;;;;15.77;4.00;;;14.50;99.90;;;;;;4818037;29;20065;-80
2023/10/05 07:21:10;;;;;;;14.95;2.90;;;14.50;99.90;;;;;;4826072;29;20062;-79
2023/10/05 07:23:37;;;;;;;13.98;3.47;;;14.60;99.90;;;;;;4795771;29;20164;-82
2023/10/05 07:26:07;;;;;;;12.68;2.50;;;14.60;99.90;;;;;;4811034;29;20057;-82
2023/10/05 07:28:37;;;;;;;11.48;2.72;;;14.60;99.90;;;;;;4842203;29;20133;-81
2023/10/05 07:31:03;;;;;;;16.08;3.50;;;14.70;99.90;;;;;;4826564;29;20107;-80
2023/10/05 07:33:36;;;;;;;20.20;3.55;;;14.70;99.90;;;;;;4827123;29;20559;-80
2023/10/05 07:36:02;;;;;;;13.50;3.13;;;15.10;99.90;;;;;;4799625;29;20418;-82
2023/10/05 07:38:28;;;;;;;13.73;3.13;;;14.70;99.90;;;;;;4792655;29;20051;-80
2023/10/05 07:40:57;;;;;;;15.55;2.97;;;14.70;99.90;;;;;;4838430;29;20062;-81
2023/10/05 07:43:24;;;;;;;19.88;4.05;;;14.70;99.90;;;;;;4833244;29;20046;-80
2023/10/05 07:45:50;;;;;;;17.27;3.30;;;14.70;99.90;;;;;;4828038;29;20129;-80
2023/10/05 07:48:16;;;;;;;18.88;3.60;;;14.70;99.90;;;;;;4829004;29;20054;-81
2023/10/05 07:50:41;;;;;;;14.60;3.85;;;14.70;99.90;;;;;;4799589;29;20057;-79
2023/10/05 07:53:07;;;;;;;16.05;4.40;;;14.70;99.90;;;;;;4828661;29;20046;-80
2023/10/05 07:55:35;;;;;;;17.80;4.10;;;14.60;99.90;;;;;;4833698;29;20107;-82
2023/10/05 07:58:02;;;;;;;19.58;5.22;;;14.60;99.90;;;;;;4826517;29;20054;-79
2023/10/05 08:00:28;;;;;;;12.98;3.38;;;14.50;99.90;;;;;;4799283;29;20042;-81
2023/10/05 08:02:54;;;;;;;19.20;4.03;;;14.50;99.90;;;;;;4829629;29;20115;-82
2023/10/05 08:05:20;;;;;;;23.95;4.40;;;14.50;99.90;;;;;;4814010;29;20051;-83
2023/10/05 08:07:46;;;;;;;13.93;3.47;;;14.50;99.90;;;;;;4836327;29;20061;-79
2023/10/05 08:10:15;;;;;;;11.55;3.85;;;14.50;99.90;;;;;;4798150;29;20407;-82
2023/10/05 08:12:42;;;;;;;19.60;3.40;;;14.50;99.90;;;;;;4826678;29;20111;-83
2023/10/05 08:15:12;;;;;;;16.85;5.15;;;14.50;99.90;;;;;;4831056;29;20055;-80
2023/10/05 08:17:39;;;;;;;16.75;3.80;;;14.50;99.90;;;;;;4833008;29;20065;-82
2023/10/05 08:20:06;;;;;;;22.80;4.10;;;14.50;99.90;;;;;;4802381;29;20063;-82
2023/10/05 08:22:33;;;;;;;16.95;4.20;;;14.50;99.90;;;;;;4837136;29;20084;-82
2023/10/05 08:25:00;;;;;;;21.50;4.28;;;14.60;99.90;;;;;;4816363;29;20134;-81
2023/10/05 08:27:26;;;;;;;17.98;3.50;;;14.60;99.90;;;;;;4833750;29;20697;-82
2023/10/05 08:29:52;;;;;;;14.70;3.50;;;14.60;99.90;;;;;;4795863;29;20065;-82
2023/10/05 08:32:24;;;;;;;13.20;2.90;;;14.60;99.90;;;;;;4828547;29;20051;-83
2023/10/05 08:34:51;;;;;;;20.73;4.07;;;14.90;99.90;;;;;;4803612;29;20054;-80
2023/10/05 08:37:19;;;;;;;19.23;3.67;;;14.60;99.90;;;;;;4835918;29;20126;-79
2023/10/05 08:39:46;;;;;;;14.30;3.85;;;14.60;99.90;;;;;;4829248;29;20042;-78
2023/10/05 08:42:14;;;;;;;12.25;3.40;;;14.60;99.90;;;;;;4796727;29;20053;-82
2023/10/05 08:44:43;;;;;;;15.68;3.13;;;14.70;99.90;;;;;;4829905;29;20424;-79
2023/10/05 08:47:13;;;;;;;15.68;3.78;;;14.70;99.90;;;;;;4829340;29;20054;-81
2023/10/05 08:49:43;;;;;;;16.58;3.42;;;14.70;99.90;;;;;;4797949;29;20495;-80
2023/10/05 08:52:19;;;;;;;13.07;3.28;;;14.70;99.90;;;;;;4812461;29;20472;-78
2023/10/05 08:54:46;;;;;;;16.73;3.35;;;14.90;99.90;;;;;;4825945;29;20062;-79
2023/10/05 08:57:12;;;;;;;10.20;2.88;;;14.80;99.90;;;;;;4825866;29;20081;-79
2023/10/05 08:59:45;;;;;;;15.02;3.50;;;14.80;99.90;;;;;;4805316;29;20054;-80
2023/10/05 09:02:21;;;;;;;20.13;4.47;;;14.90;99.90;;;;;;4828155;29;20055;-79
2023/10/05 09:04:59;;;;;;;16.73;3.78;;;14.90;99.90;;;;;;4797620;29;20099;-78
2023/10/05 09:07:35;;;;;;;16.10;3.42;;;14.90;99.90;;;;;;4795630;29;20047;-78
2023/10/05 09:10:05;;;;;;;18.95;3.47;;;15.00;99.90;;;;;;4840132;29;20111;-78
2023/10/05 09:12:46;;;;;;;18.50;3.53;;;15.00;99.90;;;;;;4824787;29;20050;-76
2023/10/05 09:15:26;;;;;;;19.25;3.85;;;15.00;99.90;;;;;;4830870;29;20053;-78
2023/10/05 09:17:58;;;;;;;16.95;3.80;;;15.00;99.90;;;;;;4819448;29;20061;-79
2023/10/05 09:20:33;;;;;;;13.98;3.78;;;15.00;99.90;;;;;;4820433;29;20066;-80
2023/10/05 09:23:04;;;;;;;16.92;3.58;;;15.00;99.90;;;;;;4843610;29;20054;-79
2023/10/05 09:25:34;;;;;;;9.02;3.05;;;15.10;99.90;;;;;;4800206;29;20113;-81
2023/10/05 09:28:45;;;;;;;12.68;3.33;;;15.00;99.90;;;;;;4828669;29;20057;-79
2023/10/05 09:30:56;;;;;;;15.18;3.55;;;15.10;99.90;;;;;;4817926;29;20058;-79
2023/10/05 09:33:27;;;;;;;13.07;3.28;;;15.10;99.90;;;;;;4833321;29;20142;-78
2023/10/05 09:35:55;;;;;;;15.98;3.80;;;15.10;99.90;;;;;;4844207;29;20043;-78
2023/10/05 09:38:24;;;;;;;16.40;3.53;;;15.10;99.90;;;;;;4804945;29;20047;-81
2023/10/05 09:40:54;;;;;;;16.85;4.00;;;15.20;99.90;;;;;;4829174;29;20047;-80
2023/10/05 09:43:22;;;;;;;16.15;3.22;;;15.20;99.90;;;;;;4831671;29;20190;-80
2023/10/05 09:45:52;;;;;;;13.32;3.35;;;15.20;99.90;;;;;;4824221;29;20085;-81
2023/10/05 09:48:20;;;;;;;12.45;3.55;;;15.40;99.90;;;;;;4826926;29;20057;-79
2023/10/05 09:50:47;;;;;;;9.43;3.33;;;15.30;99.90;;;;;;4797628;29;20103;-79
2023/10/05 09:53:17;;;;;;;14.27;3.60;;;15.30;99.90;;;;;;4801487;29;20078;-81
2023/10/05 09:55:53;;;;;;;12.73;2.90;;;15.30;99.90;;;;;;4804323;29;20046;-81
2023/10/05 09:58:22;;;;;;;9.60;3.05;;;15.40;99.90;;;;;;4818438;29;20066;-79
2023/10/05 10:00:55;;;;;;;11.48;3.05;;;15.30;99.90;;;;;;4844521;29;20081;-79
2023/10/05 10:03:21;;;;;;;10.40;2.92;;;15.40;99.90;;;;;;4833673;29;20503;-81
2023/10/05 10:06:10;;;;;;;7.32;2.47;;;15.40;99.90;;;;;;4827073;29;20045;-79
2023/10/05 10:08:57;;;;;;;9.15;2.85;;;15.40;99.90;;;;;;4823870;29;20054;-82
2023/10/05 10:11:31;;;;;;;11.10;2.80;;;15.50;99.90;;;;;;4826697;29;20077;-80
2023/10/05 10:14:02;;;;;;;12.55;3.17;;;15.40;99.90;;;;;;4826732;29;20042;-80
2023/10/05 10:16:39;;;;;;;14.02;2.97;;;15.40;99.90;;;;;;4816659;29;20550;-80
2023/10/05 10:19:07;;;;;;;10.55;3.40;;;15.40;99.90;;;;;;4847349;29;20050;-81
2023/10/05 10:21:42;;;;;;;13.13;3.70;;;15.40;99.90;;;;;;4801203;29;20503;-81
2023/10/05 10:24:14;;;;;;;18.10;3.88;;;15.40;99.90;;;;;;4834730;29;20448;-82
2023/10/05 10:27:15;;;;;;;13.00;3.28;;;15.30;99.90;;;;;;4823669;29;20051;-80
2023/10/05 10:29:44;;;;;;;14.45;3.50;;;15.30;99.90;;;;;;4815082;29;20069;-80
2023/10/05 10:32:19;;;;;;;16.33;3.50;;;15.30;99.90;;;;;;4796608;29;20053;-80
2023/10/05 10:34:55;;;;;;;11.65;3.58;;;15.40;99.90;;;;;;4821061;29;20451;-78
2023/10/05 10:37:50;;;;;;;21.02;4.25;;;15.40;99.90;;;;;;4798129;29;20042;-81
2023/10/05 10:45:33;;;;;;;13.45;2.70;;;15.50;99.90;;;;;;4842341;29;20098;-78
2023/10/05 10:47:59;;;;;;;9.15;2.70;;;15.50;99.90;;;;;;4847557;29;20059;-78
2023/10/05 10:50:30;;;;;;;13.10;2.70;;;15.50;99.90;;;;;;4818630;29;20046;-79
2023/10/05 10:52:58;;;;;;;11.63;2.65;;;15.50;99.90;;;;;;4811675;29;20078;-80
2023/10/05 10:55:32;;;;;;;13.80;4.15;;;15.50;99.90;;;;;;4794197;29;20079;-81
2023/10/05 10:58:04;;;;;;;8.45;2.50;;;15.60;99.90;;;;;;4814204;29;20050;-79
2023/10/05 11:03:11;;;;;;;12.98;2.90;;;15.60;99.90;;;;;;4841928;29;20054;-81
2023/10/05 11:05:43;;;;;;;10.07;2.70;;;15.70;99.90;;;;;;4823191;29;20385;-81
2023/10/05 11:08:13;;;;;;;14.38;3.53;;;15.80;99.90;;;;;;4813739;29;20149;-81
2023/10/05 11:10:42;;;;;;;13.13;2.88;;;15.90;99.90;;;;;;4826449;29;20042;-80
2023/10/05 11:13:18;;;;;;;14.50;3.22;;;16.00;99.90;;;;;;4817766;29;20051;-78
2023/10/05 11:16:00;;;;;;;15.15;3.05;;;16.10;99.90;;;;;;4825950;29;20114;-81
2023/10/05 11:18:31;;;;;;;14.85;2.78;;;16.20;99.90;;;;;;4794758;29;20046;-79
2023/10/05 11:21:14;;;;;;;16.75;3.53;;;16.30;99.90;;;;;;4823022;29;20047;-78
2023/10/05 11:23:48;;;;;;;11.05;3.05;;;16.30;99.90;;;;;;4802114;29;20257;-79
2023/10/05 11:26:17;;;;;;;15.10;3.78;;;16.30;99.90;;;;;;4803628;29;20483;-81
2023/10/05 11:28:48;;;;;;;9.10;2.47;;;16.40;99.90;;;;;;4814588;29;20138;-81
2023/10/05 11:31:23;;;;;;;17.15;2.70;;;16.50;99.90;;;;;;4830429;29;20126;-80
2023/10/05 11:33:53;;;;;;;10.05;2.42;;;16.60;99.90;;;;;;4823148;29;20053;-80
2023/10/05 11:36:27;;;;;;;11.50;2.22;;;16.70;99.90;;;;;;4824783;29;20522;-81
2023/10/05 11:39:00;;;;;;;12.82;2.88;;;17.00;99.90;;;;;;4795694;29;20049;-81
2023/10/05 11:41:29;;;;;;;9.52;3.00;;;17.10;99.90;;;;;;4801842;29;20050;-81
2023/10/05 11:43:56;;;;;;;15.13;3.08;;;17.30;99.90;;;;;;4820436;29;20038;-82
2023/10/05 11:46:45;;;;;;;12.93;3.53;;;17.30;99.90;;;;;;4824999;29;20042;-80
2023/10/05 11:49:13;;;;;;;10.23;2.85;;;17.30;99.90;;;;;;4823609;29;20055;-81
2023/10/05 11:51:42;;;;;;;11.18;2.25;;;16.60;99.90;;;;;;4840300;29;20057;-82
2023/10/05 11:54:19;;;;;;;7.97;2.15;;;17.20;99.90;;;;;;4810267;29;20067;-80
2023/10/05 11:56:46;;;;;;;11.18;2.55;;;17.00;99.90;;;;;;4818551;29;20114;-79
2023/10/05 11:59:13;;;;;;;4.93;1.95;;;16.90;99.90;;;;;;4826110;29;20047;-80
2023/10/05 12:01:40;;;;;;;7.85;2.50;;;16.70;99.90;;;;;;4801451;29;20061;-82
2023/10/05 12:04:09;;;;;;;7.53;1.63;;;16.60;99.90;;;;;;4826947;29;20475;-79
2023/10/05 12:06:37;;;;;;;9.88;2.05;;;16.50;99.90;;;;;;4817891;29;20053;-80
2023/10/05 12:09:07;;;;;;;9.00;2.17;;;16.50;99.90;;;;;;4827062;29;20052;-82
2023/10/05 12:11:33;;;;;;;11.63;2.33;;;16.40;99.90;;;;;;4826527;29;20051;-79
2023/10/05 12:13:59;;;;;;;11.15;2.33;;;16.30;99.90;;;;;;4802105;29;20078;-80
2023/10/05 12:16:27;;;;;;;13.40;2.53;;;16.20;99.90;;;;;;4831571;29;20149;-83
2023/10/05 12:18:54;;;;;;;12.20;2.60;;;16.20;99.90;;;;;;4795429;29;20042;-80
2023/10/05 12:21:28;;;;;;;20.33;9.10;;;16.10;99.90;;;;;;4817815;29;20062;-80
2023/10/05 12:23:53;;;;;;;11.00;3.13;;;16.10;99.90;;;;;;4798054;29;20551;-79
2023/10/05 12:26:21;;;;;;;11.63;2.55;;;16.10;99.90;;;;;;4825420;29;20055;-79
2023/10/05 12:28:46;;;;;;;10.40;2.45;;;16.10;99.90;;;;;;4832614;29;20047;-78
2023/10/05 12:31:12;;;;;;;8.40;1.98;;;16.10;99.90;;;;;;4833250;29;20050;-78
2023/10/05 12:33:41;;;;;;;8.40;2.08;;;16.10;99.90;;;;;;4819997;29;20046;-79
2023/10/05 12:36:08;;;;;;;8.43;1.92;;;16.00;99.90;;;;;;4836971;29;20050;-80
2023/10/05 12:38:35;;;;;;;7.22;2.17;;;15.30;99.90;;;;;;4835543;29;20042;-79
2023/10/05 12:41:20;;;;;;;12.23;1.83;;;15.90;99.90;;;;;;4795989;29;20043;-78
2023/10/05 12:43:46;;;;;;;7.03;2.05;;;16.10;99.90;;;;;;4843942;29;20046;-83
2023/10/05 12:46:13;;;;;;;10.05;2.00;;;16.00;99.90;;;;;;4834793;29;20046;-81
2023/10/05 12:48:43;;;;;;;8.02;2.05;;;16.10;99.90;;;;;;4817653;29;20103;-81
2023/10/05 12:51:08;;;;;;;8.10;1.95;;;16.00;99.90;;;;;;4825532;29;20043;-81
2023/10/05 12:53:36;;;;;;;10.48;2.00;;;16.00;99.90;;;;;;4844513;29;20110;-81
2023/10/05 12:56:03;;;;;;;5.72;2.10;;;15.90;99.90;;;;;;4816252;29;20097;-82
2023/10/05 12:58:32;;;;;;;6.03;2.00;;;15.90;99.90;;;;;;4799132;29;20053;-82
2023/10/05 13:01:07;;;;;;;10.63;2.25;;;16.00;99.90;;;;;;4820718;29;20055;-80
2023/10/05 13:03:34;;;;;;;8.73;2.28;;;16.00;99.90;;;;;;4805026;29;20554;-81
2023/10/05 13:06:03;;;;;;;11.35;2.20;;;16.10;99.90;;;;;;4849630;29;20101;-78
2023/10/05 13:08:28;;;;;;;8.98;2.00;;;17.20;99.90;;;;;;4816877;29;20083;-79
2023/10/05 13:10:57;;;;;;;8.13;2.00;;;16.40;99.90;;;;;;4820200;29;20134;-80